Time;durP1;ratioP1;P1;durP2;ratioP2;P2;SDS_P1;SDS_P2;PMS_P1;PMS_P2;Temp;Humidity;BMP_temperature;BMP_pressure;BME280_temperature;BME280_humidity;BME280_pressure;Samples;Min_cycle;Max_cycle;Signal;HPM_P1;HPM_P2
2021/11/23 00:02:00;;;;;;;1.80;1.70;;;0.80;98.20;;;;;;4911390;29;20480;-75
2021/11/23 00:04:27;;;;;;;1.80;1.70;;;0.80;98.20;;;;;;4918023;29;20465;-74
2021/11/23 00:06:54;;;;;;;1.80;1.70;;;0.80;98.20;;;;;;4902163;29;20580;-77
2021/11/23 00:09:21;;;;;;;1.90;1.80;;;0.80;98.20;;;;;;4909490;29;20791;-75
2021/11/23 00:11:48;;;;;;;1.93;1.77;;;0.80;98.20;;;;;;4897152;29;21011;-75
2021/11/23 00:14:16;;;;;;;2.10;1.90;;;0.80;98.20;;;;;;4910304;29;20476;-75
2021/11/23 00:16:42;;;;;;;1.80;1.70;;;0.70;98.20;;;;;;4901624;29;20492;-76
2021/11/23 00:19:09;;;;;;;2.10;1.90;;;0.80;98.20;;;;;;4910165;29;20492;-75
2021/11/23 00:21:36;;;;;;;1.80;1.70;;;0.80;98.20;;;;;;4905136;29;20503;-75
2021/11/23 00:24:03;;;;;;;1.80;1.70;;;0.70;98.20;;;;;;4915336;29;20465;-76
2021/11/23 00:26:30;;;;;;;2.10;1.90;;;0.80;98.20;;;;;;4897971;29;20481;-76
2021/11/23 00:28:56;;;;;;;1.80;1.70;;;0.80;98.20;;;;;;4909751;29;20476;-76
2021/11/23 00:31:25;;;;;;;1.80;1.70;;;0.80;98.20;;;;;;4896552;29;20808;-77
2021/11/23 00:33:51;;;;;;;1.90;1.80;;;0.80;98.20;;;;;;4908765;29;20492;-76
2021/11/23 00:36:18;;;;;;;1.80;1.70;;;0.70;98.20;;;;;;4902442;29;20491;-75
2021/11/23 00:38:45;;;;;;;1.90;1.80;;;0.70;98.20;;;;;;4917658;29;20490;-75
2021/11/23 00:41:13;;;;;;;1.90;1.80;;;0.70;98.20;;;;;;4901037;29;21060;-77
2021/11/23 00:43:41;;;;;;;1.80;1.70;;;0.70;98.20;;;;;;4909071;29;20473;-75
2021/11/23 00:46:08;;;;;;;1.80;1.70;;;0.70;98.20;;;;;;4900255;29;20901;-75
2021/11/23 00:48:36;;;;;;;1.80;1.70;;;0.70;98.20;;;;;;4909100;29;20503;-75
2021/11/23 00:51:03;;;;;;;1.80;1.70;;;0.70;98.20;;;;;;4903852;29;20472;-73
2021/11/23 00:53:30;;;;;;;1.87;1.77;;;0.70;98.20;;;;;;4922511;29;20468;-75
2021/11/23 00:55:57;;;;;;;1.80;1.70;;;0.60;98.20;;;;;;4900022;29;20835;-75
2021/11/23 00:58:23;;;;;;;1.80;1.70;;;0.60;98.20;;;;;;4910303;29;20584;-75
2021/11/23 01:00:51;;;;;;;1.80;1.70;;;0.60;98.20;;;;;;4902663;29;20571;-75
2021/11/23 01:03:18;;;;;;;1.90;1.80;;;0.60;98.20;;;;;;4910124;29;20465;-76
2021/11/23 01:05:46;;;;;;;1.80;1.70;;;0.50;98.20;;;;;;4909280;29;21008;-76
2021/11/23 01:08:13;;;;;;;1.87;1.77;;;0.50;98.20;;;;;;4898912;29;20503;-75
2021/11/23 01:10:40;;;;;;;1.90;1.80;;;0.50;98.20;;;;;;4905787;29;20504;-75
2021/11/23 01:13:07;;;;;;;1.80;1.70;;;0.60;98.20;;;;;;4913076;29;20866;-75
2021/11/23 01:15:34;;;;;;;1.90;1.80;;;0.50;98.20;;;;;;4910946;29;20460;-76
2021/11/23 01:18:01;;;;;;;1.80;1.70;;;0.50;98.20;;;;;;4899633;29;20496;-75
2021/11/23 01:20:28;;;;;;;1.87;1.77;;;0.50;98.20;;;;;;4908361;29;20476;-76
2021/11/23 01:22:57;;;;;;;1.80;1.70;;;0.50;98.20;;;;;;4900294;29;20536;-75
2021/11/23 01:25:24;;;;;;;1.90;1.80;;;0.50;98.20;;;;;;4906890;29;20559;-76
2021/11/23 01:27:51;;;;;;;1.80;1.70;;;0.60;98.20;;;;;;4912134;29;20487;-76
2021/11/23 01:30:19;;;;;;;1.90;1.80;;;0.60;98.20;;;;;;4911690;29;20473;-75
2021/11/23 01:32:45;;;;;;;1.80;1.70;;;0.60;98.20;;;;;;4915690;29;20510;-76
2021/11/23 01:35:13;;;;;;;1.97;1.83;;;0.60;98.20;;;;;;4909440;29;20469;-76
2021/11/23 01:37:41;;;;;;;1.80;1.70;;;0.60;98.20;;;;;;4899212;29;20488;-75
2021/11/23 01:40:11;;;;;;;1.80;1.70;;;0.60;98.20;;;;;;4908521;29;20933;-76
2021/11/23 01:42:39;;;;;;;1.87;1.70;;;0.60;98.20;;;;;;4900362;29;20512;-75
2021/11/23 01:45:07;;;;;;;1.80;1.70;;;0.70;98.20;;;;;;4909359;29;20981;-75
2021/11/23 01:47:34;;;;;;;1.80;1.70;;;0.70;98.20;;;;;;4900368;29;20496;-76
2021/11/23 01:50:01;;;;;;;1.80;1.70;;;0.80;98.20;;;;;;4907817;29;20998;-75
2021/11/23 01:52:28;;;;;;;1.90;1.80;;;0.80;98.20;;;;;;4900225;29;20489;-76
2021/11/23 01:54:54;;;;;;;1.80;1.70;;;0.90;98.20;;;;;;4909936;29;20465;-75
2021/11/23 01:57:23;;;;;;;1.90;1.80;;;0.90;98.20;;;;;;4908595;29;20513;-76
2021/11/23 01:59:49;;;;;;;1.80;1.70;;;0.90;98.20;;;;;;4916318;29;20492;-76
2021/11/23 02:02:17;;;;;;;1.80;1.70;;;1.00;98.20;;;;;;4915720;29;20515;-76
2021/11/23 02:04:45;;;;;;;1.73;1.63;;;1.00;98.20;;;;;;4917895;29;20975;-76
2021/11/23 02:07:13;;;;;;;1.80;1.70;;;1.00;98.20;;;;;;4903902;29;20489;-75
2021/11/23 02:09:40;;;;;;;1.80;1.70;;;1.00;98.20;;;;;;4913884;29;20464;-77
2021/11/23 02:12:07;;;;;;;1.80;1.70;;;1.00;98.20;;;;;;4903900;29;20503;-75
2021/11/23 02:14:36;;;;;;;1.80;1.70;;;1.00;98.20;;;;;;4913284;29;21084;-75
2021/11/23 02:17:03;;;;;;;1.70;1.60;;;1.00;98.20;;;;;;4904007;29;20503;-76
2021/11/23 02:19:30;;;;;;;1.80;1.70;;;1.00;98.20;;;;;;4913833;29;20499;-76
2021/11/23 02:21:58;;;;;;;1.80;1.70;;;1.00;98.20;;;;;;4909280;29;20503;-76
2021/11/23 02:24:25;;;;;;;1.70;1.60;;;1.00;98.20;;;;;;4914598;29;20476;-75
2021/11/23 02:26:52;;;;;;;1.80;1.70;;;1.00;98.20;;;;;;4898885;29;21218;-77
2021/11/23 02:29:18;;;;;;;1.80;1.70;;;1.00;98.20;;;;;;4914272;29;20464;-75
2021/11/23 02:31:46;;;;;;;1.80;1.70;;;1.00;98.20;;;;;;4900151;29;20514;-76
2021/11/23 02:34:13;;;;;;;1.80;1.70;;;0.90;98.20;;;;;;4907774;29;20488;-75
2021/11/23 02:36:41;;;;;;;1.80;1.70;;;0.90;98.20;;;;;;4906076;29;20644;-76
2021/11/23 02:39:09;;;;;;;1.80;1.70;;;0.90;98.20;;;;;;4913626;29;21029;-76
2021/11/23 02:41:39;;;;;;;1.80;1.70;;;0.90;98.20;;;;;;4902147;29;20492;-74
2021/11/23 02:44:07;;;;;;;1.90;1.80;;;0.90;98.20;;;;;;4909409;29;20480;-75
2021/11/23 02:46:34;;;;;;;3.70;3.40;;;0.80;98.20;;;;;;4902553;29;20499;-74
2021/11/23 02:49:01;;;;;;;1.83;1.73;;;0.80;98.20;;;;;;4909681;29;20981;-76
2021/11/23 02:51:29;;;;;;;1.80;1.70;;;0.80;98.20;;;;;;4896574;29;20719;-77
2021/11/23 02:53:56;;;;;;;1.80;1.70;;;0.80;98.20;;;;;;4911081;29;20510;-75
2021/11/23 02:56:24;;;;;;;1.87;1.77;;;0.70;98.20;;;;;;4903964;29;20487;-76
2021/11/23 02:58:51;;;;;;;1.80;1.70;;;0.70;98.20;;;;;;4918364;29;20492;-76
2021/11/23 03:01:20;;;;;;;1.80;1.70;;;0.70;98.20;;;;;;4901031;29;21013;-76
2021/11/23 03:03:47;;;;;;;1.87;1.77;;;0.70;98.20;;;;;;4922175;29;20511;-76
2021/11/23 03:06:17;;;;;;;1.70;1.60;;;0.70;98.20;;;;;;4903025;29;20615;-76
2021/11/23 03:08:45;;;;;;;1.80;1.70;;;0.70;98.20;;;;;;4917967;29;20473;-74
2021/11/23 03:11:11;;;;;;;1.80;1.70;;;0.60;98.20;;;;;;4897039;29;20543;-75
2021/11/23 03:13:40;;;;;;;1.80;1.70;;;0.60;98.20;;;;;;4919681;29;20480;-75
2021/11/23 03:16:07;;;;;;;1.90;1.80;;;0.60;98.20;;;;;;4899507;29;20914;-76
2021/11/23 03:18:33;;;;;;;1.70;1.60;;;0.60;98.20;;;;;;4910681;29;21038;-75
2021/11/23 03:21:01;;;;;;;1.80;1.70;;;0.60;98.20;;;;;;4901187;29;20978;-76
2021/11/23 03:23:28;;;;;;;1.83;1.73;;;0.60;98.20;;;;;;4912319;29;20469;-76
2021/11/23 03:25:55;;;;;;;1.80;1.70;;;0.60;98.20;;;;;;4901775;29;20497;-76
2021/11/23 03:28:21;;;;;;;1.80;1.70;;;0.60;98.20;;;;;;4924973;29;20492;-76
2021/11/23 03:30:50;;;;;;;2.37;2.17;;;0.50;98.20;;;;;;4905819;29;20954;-77
2021/11/23 03:33:17;;;;;;;1.80;1.70;;;0.50;98.20;;;;;;4911254;29;20498;-76
2021/11/23 03:35:45;;;;;;;1.80;1.70;;;0.50;98.20;;;;;;4908419;29;20472;-76
2021/11/23 03:38:14;;;;;;;1.70;1.60;;;0.50;98.20;;;;;;4901842;29;20999;-76
2021/11/23 03:40:42;;;;;;;1.80;1.70;;;0.50;98.20;;;;;;4911868;29;20567;-75
2021/11/23 03:43:11;;;;;;;1.80;1.70;;;0.50;98.20;;;;;;4917404;29;20497;-75
2021/11/23 03:45:38;;;;;;;1.80;1.70;;;0.50;98.20;;;;;;4909567;29;20957;-75
2021/11/23 03:48:06;;;;;;;1.80;1.70;;;0.40;98.20;;;;;;4901469;29;20498;-75
2021/11/23 03:50:34;;;;;;;1.80;1.70;;;0.40;98.20;;;;;;4912242;29;20463;-76
2021/11/23 03:53:01;;;;;;;1.80;1.70;;;0.40;98.20;;;;;;4917149;29;20484;-76
2021/11/23 03:55:31;;;;;;;1.83;1.73;;;0.40;98.20;;;;;;4911365;29;20460;-75
2021/11/23 03:57:58;;;;;;;1.83;1.73;;;0.40;98.20;;;;;;4895680;29;21016;-75
2021/11/23 04:00:26;;;;;;;1.80;1.70;;;0.50;98.20;;;;;;4911034;29;20497;-76
2021/11/23 04:02:54;;;;;;;1.80;1.70;;;0.50;98.20;;;;;;4900224;29;20500;-76
2021/11/23 04:05:22;;;;;;;1.80;1.70;;;0.50;98.20;;;;;;4908787;29;20962;-75
2021/11/23 04:07:49;;;;;;;1.80;1.70;;;0.50;98.20;;;;;;4911860;29;20489;-75
2021/11/23 04:10:17;;;;;;;1.80;1.70;;;0.50;98.20;;;;;;4909767;29;20464;-75
2021/11/23 04:12:46;;;;;;;1.80;1.70;;;0.40;98.20;;;;;;4901225;29;21050;-76
2021/11/23 04:15:13;;;;;;;1.80;1.70;;;0.40;98.20;;;;;;4905943;29;20466;-77
2021/11/23 04:17:39;;;;;;;1.80;1.70;;;0.40;98.20;;;;;;4901485;29;20500;-76
2021/11/23 04:20:07;;;;;;;1.80;1.70;;;0.40;98.20;;;;;;4909459;29;20488;-76
2021/11/23 04:22:38;;;;;;;1.80;1.70;;;0.40;98.20;;;;;;4901583;29;20519;-75
2021/11/23 04:25:06;;;;;;;1.87;1.77;;;0.40;98.20;;;;;;4907363;29;20497;-77
2021/11/23 04:27:33;;;;;;;1.80;1.70;;;0.40;98.20;;;;;;4901189;29;20508;-77
2021/11/23 04:30:00;;;;;;;1.90;1.80;;;0.40;98.20;;;;;;4906790;29;20461;-76
2021/11/23 04:32:26;;;;;;;1.80;1.70;;;0.50;98.20;;;;;;4902539;29;20480;-76
2021/11/23 04:34:53;;;;;;;1.70;1.60;;;0.50;98.20;;;;;;4905042;29;20472;-75
2021/11/23 04:37:20;;;;;;;1.80;1.70;;;0.50;98.20;;;;;;4901492;29;20584;-76
2021/11/23 04:39:49;;;;;;;1.70;1.60;;;0.60;98.20;;;;;;4911477;29;20489;-76
2021/11/23 04:42:16;;;;;;;1.80;1.70;;;0.60;98.20;;;;;;4902838;29;20489;-74
2021/11/23 04:44:43;;;;;;;1.80;1.70;;;0.70;98.20;;;;;;4913230;29;20464;-77
2021/11/23 04:47:09;;;;;;;1.80;1.70;;;0.70;98.20;;;;;;4908879;29;20892;-76
2021/11/23 04:49:36;;;;;;;7.93;5.10;;;0.70;98.20;;;;;;4915769;29;20457;-76
2021/11/23 04:52:03;;;;;;;1.80;1.70;;;0.80;98.20;;;;;;4910708;29;20543;-76
2021/11/23 04:54:30;;;;;;;1.80;1.70;;;0.80;98.20;;;;;;4917761;29;20946;-76
2021/11/23 04:56:58;;;;;;;1.80;1.70;;;0.90;98.20;;;;;;4904738;29;20572;-74
2021/11/23 04:59:26;;;;;;;1.80;1.70;;;0.90;98.20;;;;;;4916132;29;20492;-76
2021/11/23 05:01:56;;;;;;;1.80;1.70;;;0.90;98.20;;;;;;4898058;29;20519;-76
2021/11/23 05:04:23;;;;;;;1.80;1.70;;;1.00;98.20;;;;;;4910450;29;21062;-77
2021/11/23 05:06:50;;;;;;;1.80;1.70;;;1.00;98.20;;;;;;4909773;29;20494;-75
2021/11/23 05:09:16;;;;;;;1.77;1.67;;;1.10;98.20;;;;;;4916175;29;20461;-76
2021/11/23 05:11:46;;;;;;;1.70;1.60;;;1.10;98.20;;;;;;4903713;29;21017;-77
2021/11/23 05:14:14;;;;;;;1.70;1.60;;;1.20;98.20;;;;;;4913725;29;20476;-76
2021/11/23 05:16:42;;;;;;;1.80;1.70;;;1.20;98.20;;;;;;4896257;29;20497;-76
2021/11/23 05:19:09;;;;;;;1.80;1.70;;;1.20;98.20;;;;;;4908155;29;20493;-75
2021/11/23 05:21:36;;;;;;;1.80;1.70;;;1.20;98.20;;;;;;4903514;29;20490;-74
2021/11/23 05:24:04;;;;;;;1.70;1.60;;;1.20;98.20;;;;;;4914965;29;20506;-75
2021/11/23 05:26:31;;;;;;;1.90;1.80;;;1.30;98.20;;;;;;4906030;29;20484;-77
2021/11/23 05:28:58;;;;;;;1.73;1.63;;;1.30;98.20;;;;;;4908821;29;20947;-74
2021/11/23 05:31:26;;;;;;;1.70;1.60;;;1.30;98.20;;;;;;4908503;29;20537;-76
2021/11/23 05:33:53;;;;;;;1.80;1.70;;;1.30;98.20;;;;;;4903139;29;20979;-75
2021/11/23 05:36:20;;;;;;;1.70;1.60;;;1.40;98.20;;;;;;4908568;29;20465;-74
2021/11/23 05:38:47;;;;;;;1.80;1.70;;;1.40;98.20;;;;;;4913293;29;20821;-74
2021/11/23 05:41:14;;;;;;;1.70;1.60;;;1.40;98.20;;;;;;4912872;29;20492;-75
2021/11/23 05:43:40;;;;;;;1.70;1.60;;;1.40;98.20;;;;;;4913041;29;20511;-75
2021/11/23 05:46:07;;;;;;;1.80;1.70;;;1.50;98.20;;;;;;4912806;29;20469;-75
2021/11/23 05:48:36;;;;;;;1.70;1.60;;;1.50;98.20;;;;;;4912824;29;20492;-75
2021/11/23 05:51:04;;;;;;;1.70;1.60;;;1.50;98.20;;;;;;4905862;29;20468;-74
2021/11/23 05:53:32;;;;;;;1.80;1.70;;;1.50;98.20;;;;;;4909273;29;20496;-75
2021/11/23 05:55:59;;;;;;;1.70;1.60;;;1.50;98.20;;;;;;4909128;29;20483;-74
2021/11/23 05:58:27;;;;;;;1.70;1.60;;;1.50;98.20;;;;;;4911623;29;20580;-74
2021/11/23 06:00:54;;;;;;;1.70;1.60;;;1.50;98.20;;;;;;4911775;29;20488;-75
2021/11/23 06:03:21;;;;;;;1.80;1.70;;;1.50;98.20;;;;;;4911525;29;20475;-75
2021/11/23 06:05:50;;;;;;;1.70;1.60;;;1.60;98.20;;;;;;4906693;29;20498;-75
2021/11/23 06:08:17;;;;;;;1.70;1.60;;;1.60;98.20;;;;;;4909417;29;20495;-74
2021/11/23 06:10:44;;;;;;;2.90;2.70;;;1.60;98.20;;;;;;4906665;29;21034;-74
2021/11/23 06:13:12;;;;;;;1.80;1.70;;;1.60;98.20;;;;;;4906908;29;20464;-74
2021/11/23 06:15:42;;;;;;;1.70;1.60;;;1.60;98.20;;;;;;4901575;29;20477;-75
2021/11/23 06:18:11;;;;;;;1.87;1.73;;;1.60;98.20;;;;;;4907581;29;20519;-74
2021/11/23 06:20:38;;;;;;;1.70;1.60;;;1.60;98.20;;;;;;4904387;29;21233;-75
2021/11/23 06:23:06;;;;;;;1.70;1.60;;;1.60;98.20;;;;;;4910596;29;20468;-75
2021/11/23 06:25:33;;;;;;;1.77;1.67;;;1.60;98.20;;;;;;4908628;29;20548;-75
2021/11/23 06:28:00;;;;;;;1.70;1.60;;;1.60;98.20;;;;;;4912226;29;21020;-76
2021/11/23 06:30:29;;;;;;;1.70;1.60;;;1.60;98.20;;;;;;4912361;29;21017;-78
2021/11/23 06:32:57;;;;;;;1.80;1.70;;;1.60;98.20;;;;;;4905509;29;20488;-76
2021/11/23 06:35:24;;;;;;;1.77;1.67;;;1.70;98.20;;;;;;4912647;29;20469;-76
2021/11/23 06:37:50;;;;;;;1.70;1.50;;;1.70;98.20;;;;;;4911054;29;20527;-75
2021/11/23 06:40:19;;;;;;;1.80;1.70;;;1.70;98.20;;;;;;4912436;29;20488;-75
2021/11/23 06:42:46;;;;;;;1.70;1.60;;;1.80;98.20;;;;;;4913334;29;21155;-75
2021/11/23 06:45:13;;;;;;;1.73;1.63;;;1.70;98.20;;;;;;4911874;29;20468;-75
2021/11/23 06:47:40;;;;;;;1.70;1.60;;;1.70;98.20;;;;;;4914161;29;20503;-74
2021/11/23 06:50:08;;;;;;;1.70;1.60;;;1.70;98.20;;;;;;4913221;29;20468;-76
2021/11/23 06:52:35;;;;;;;1.63;1.50;;;1.70;98.20;;;;;;4902912;29;20488;-76
2021/11/23 06:55:02;;;;;;;1.70;1.60;;;1.80;98.20;;;;;;4911851;29;21001;-76
2021/11/23 06:57:30;;;;;;;1.70;1.60;;;1.80;98.20;;;;;;4909453;29;20495;-76
2021/11/23 06:59:57;;;;;;;1.70;1.53;;;1.80;98.20;;;;;;4915119;29;20484;-77
2021/11/23 07:02:23;;;;;;;3.10;2.90;;;1.80;98.20;;;;;;4902815;29;20492;-76
2021/11/23 07:04:50;;;;;;;1.70;1.60;;;1.80;98.20;;;;;;4911763;29;20468;-76
2021/11/23 07:07:17;;;;;;;1.77;1.67;;;1.80;98.20;;;;;;4915130;29;20498;-76
2021/11/23 07:09:44;;;;;;;1.70;1.60;;;1.80;98.20;;;;;;4915569;29;20629;-75
2021/11/23 07:12:11;;;;;;;1.70;1.50;;;1.80;98.20;;;;;;4910695;29;21036;-75
2021/11/23 07:14:40;;;;;;;1.70;1.60;;;1.90;98.20;;;;;;4914407;29;20464;-75
2021/11/23 07:17:07;;;;;;;1.70;1.60;;;1.90;98.20;;;;;;4908925;29;20935;-73
2021/11/23 07:19:34;;;;;;;1.70;1.60;;;1.90;98.20;;;;;;4913215;29;20469;-75
2021/11/23 07:22:01;;;;;;;1.70;1.60;;;1.90;98.20;;;;;;4911829;29;20498;-74
2021/11/23 07:24:28;;;;;;;1.70;1.60;;;1.90;98.20;;;;;;4917857;29;20475;-75
2021/11/23 07:26:55;;;;;;;1.70;1.60;;;1.90;98.20;;;;;;4905346;29;20890;-73
2021/11/23 07:29:23;;;;;;;1.67;1.50;;;2.00;98.20;;;;;;4914197;29;20469;-73
2021/11/23 07:31:51;;;;;;;1.63;1.50;;;2.00;98.20;;;;;;4905542;29;21070;-75
2021/11/23 07:34:20;;;;;;;1.70;1.60;;;2.10;98.20;;;;;;4915606;29;20472;-75
2021/11/23 07:36:47;;;;;;;1.70;1.60;;;2.10;98.20;;;;;;4893319;29;20500;-74
2021/11/23 07:39:14;;;;;;;1.70;1.57;;;2.10;98.20;;;;;;4910913;29;20472;-75
2021/11/23 07:41:40;;;;;;;1.70;1.50;;;2.20;98.20;;;;;;4906422;29;20487;-76
2021/11/23 07:44:07;;;;;;;1.77;1.67;;;2.20;98.20;;;;;;4918150;29;20465;-75
2021/11/23 07:46:34;;;;;;;1.70;1.57;;;2.20;98.20;;;;;;4898474;29;20890;-74
2021/11/23 07:49:03;;;;;;;1.70;1.50;;;2.30;98.20;;;;;;4901291;29;20868;-76
2021/11/23 07:51:30;;;;;;;1.67;1.50;;;2.30;98.20;;;;;;4894705;29;20489;-76
2021/11/23 07:53:57;;;;;;;1.67;1.50;;;2.40;98.20;;;;;;4905828;29;21069;-73
2021/11/23 07:56:23;;;;;;;1.70;1.53;;;2.40;98.20;;;;;;4896484;29;20862;-76
2021/11/23 07:58:50;;;;;;;1.70;1.60;;;2.50;98.20;;;;;;4915897;29;20473;-75
2021/11/23 08:01:17;;;;;;;1.80;1.70;;;2.60;98.20;;;;;;4898886;29;20481;-76
2021/11/23 08:03:44;;;;;;;1.70;1.50;;;2.60;98.20;;;;;;4904713;29;20488;-77
2021/11/23 08:06:12;;;;;;;1.67;1.50;;;2.70;98.20;;;;;;4901723;29;20487;-75
2021/11/23 08:08:40;;;;;;;1.70;1.50;;;2.80;98.20;;;;;;4917604;29;20499;-76
2021/11/23 08:11:07;;;;;;;1.63;1.50;;;2.80;98.20;;;;;;4896791;29;20954;-75
2021/11/23 08:13:35;;;;;;;1.97;1.77;;;2.80;98.20;;;;;;4905517;29;20475;-77
2021/11/23 08:16:03;;;;;;;1.70;1.60;;;2.80;98.20;;;;;;4898047;29;20537;-74
2021/11/23 08:18:31;;;;;;;1.70;1.50;;;2.80;98.20;;;;;;4916032;29;20484;-76
2021/11/23 08:20:58;;;;;;;1.77;1.67;;;2.80;98.20;;;;;;4897483;29;20912;-76
2021/11/23 08:23:26;;;;;;;1.70;1.50;;;2.90;98.20;;;;;;4916241;29;20475;-76
2021/11/23 08:25:54;;;;;;;1.70;1.60;;;3.00;98.20;;;;;;4893728;29;20484;-75
2021/11/23 08:28:22;;;;;;;1.63;1.50;;;3.00;98.20;;;;;;4915934;29;20551;-76
2021/11/23 08:30:49;;;;;;;1.67;1.50;;;3.10;98.20;;;;;;4895420;29;20464;-76
2021/11/23 08:33:16;;;;;;;1.70;1.50;;;3.10;98.20;;;;;;4919525;29;20475;-76
2021/11/23 08:35:43;;;;;;;1.70;1.50;;;3.20;98.20;;;;;;4905910;29;20468;-76
2021/11/23 08:38:10;;;;;;;1.70;1.50;;;3.20;98.20;;;;;;4896698;29;20507;-75
2021/11/23 08:40:38;;;;;;;1.70;1.50;;;3.20;98.20;;;;;;4902718;29;20498;-76
2021/11/23 08:43:05;;;;;;;1.67;1.50;;;3.20;98.20;;;;;;4896027;29;20492;-76
2021/11/23 08:45:32;;;;;;;1.70;1.50;;;3.20;98.20;;;;;;4905939;29;20825;-75
2021/11/23 08:47:59;;;;;;;1.63;1.50;;;3.20;98.20;;;;;;4909867;29;20500;-75
2021/11/23 08:50:26;;;;;;;1.60;1.40;;;3.30;98.20;;;;;;4902339;29;20465;-76
2021/11/23 08:52:53;;;;;;;2.97;2.77;;;3.30;98.20;;;;;;4896319;29;21078;-75
2021/11/23 08:55:20;;;;;;;1.70;1.50;;;3.40;98.20;;;;;;4906216;29;20583;-76
2021/11/23 08:57:48;;;;;;;1.67;1.40;;;3.40;98.20;;;;;;4905291;29;20501;-76
2021/11/23 09:00:17;;;;;;;1.70;1.53;;;3.40;98.20;;;;;;4905146;29;20848;-76
2021/11/23 09:02:46;;;;;;;1.70;1.50;;;3.40;98.20;;;;;;4895350;29;20488;-75
2021/11/23 09:05:13;;;;;;;1.60;1.50;;;3.50;98.20;;;;;;4903909;29;20555;-75
2021/11/23 09:07:40;;;;;;;1.80;1.70;;;3.50;98.20;;;;;;4907097;29;20593;-76
2021/11/23 09:10:11;;;;;;;1.67;1.40;;;3.60;98.20;;;;;;4904028;29;20644;-76
2021/11/23 09:12:38;;;;;;;1.70;1.50;;;3.70;98.20;;;;;;4896719;29;20916;-76
2021/11/23 09:15:07;;;;;;;1.67;1.50;;;3.70;98.20;;;;;;4907860;29;20472;-76
2021/11/23 09:17:33;;;;;;;1.67;1.50;;;3.80;98.20;;;;;;4894677;29;20526;-76
2021/11/23 09:20:00;;;;;;;1.70;1.40;;;3.80;98.20;;;;;;4906635;29;20474;-75
2021/11/23 09:22:28;;;;;;;1.70;1.50;;;3.80;98.20;;;;;;4889837;29;20505;-77
2021/11/23 09:24:55;;;;;;;1.67;1.47;;;3.80;98.20;;;;;;4903343;29;20590;-76
2021/11/23 09:27:22;;;;;;;1.70;1.40;;;3.90;98.20;;;;;;4907352;29;20491;-75
2021/11/23 09:29:48;;;;;;;1.63;1.40;;;4.00;98.20;;;;;;4908696;29;20844;-77
2021/11/23 09:32:17;;;;;;;1.60;1.40;;;4.00;98.20;;;;;;4897485;29;20495;-77
2021/11/23 09:34:44;;;;;;;1.70;1.57;;;4.10;98.20;;;;;;4906015;29;20480;-75
2021/11/23 09:37:11;;;;;;;1.63;1.40;;;4.30;98.20;;;;;;4894090;29;20547;-76
2021/11/23 09:39:37;;;;;;;1.70;1.60;;;4.40;98.20;;;;;;4907345;29;20481;-76
2021/11/23 09:42:05;;;;;;;1.67;1.40;;;4.40;98.20;;;;;;4905441;29;20495;-76
2021/11/23 09:44:32;;;;;;;1.63;1.40;;;4.50;98.20;;;;;;4906740;29;20472;-77
2021/11/23 09:46:59;;;;;;;1.60;1.40;;;4.60;98.20;;;;;;4906722;29;20562;-77
2021/11/23 09:49:27;;;;;;;1.63;1.40;;;4.70;98.20;;;;;;4911886;29;20469;-76
2021/11/23 09:51:54;;;;;;;1.67;1.40;;;4.70;98.20;;;;;;4896188;29;20500;-77
2021/11/23 09:54:21;;;;;;;1.60;1.40;;;4.70;98.20;;;;;;4902053;29;20890;-76
2021/11/23 09:56:48;;;;;;;1.70;1.40;;;4.80;98.20;;;;;;4893941;29;20493;-76
2021/11/23 09:59:15;;;;;;;1.60;1.30;;;4.80;98.20;;;;;;4904498;29;21059;-75
2021/11/23 10:01:51;;;;;;;1.70;1.50;;;4.90;98.20;;;;;;4894093;29;21009;-76
2021/11/23 10:04:19;;;;;;;1.70;1.40;;;4.90;98.20;;;;;;4904683;29;20488;-75
2021/11/23 10:06:58;;;;;;;1.97;1.77;;;4.90;98.20;;;;;;4902432;29;20491;-76
2021/11/23 10:09:36;;;;;;;1.70;1.40;;;4.80;98.20;;;;;;4914001;29;20639;-76
2021/11/23 10:12:19;;;;;;;1.70;1.40;;;4.80;98.20;;;;;;4905808;29;20872;-76
2021/11/23 10:15:09;;;;;;;1.67;1.43;;;4.80;98.20;;;;;;4909883;29;20500;-77
2021/11/23 10:17:36;;;;;;;1.63;1.30;;;4.80;98.20;;;;;;4913113;29;21012;-75
2021/11/23 10:20:04;;;;;;;1.60;1.40;;;4.80;98.20;;;;;;4910634;29;20502;-77
2021/11/23 10:22:35;;;;;;;1.60;1.30;;;4.90;98.20;;;;;;4913711;29;20962;-76
2021/11/23 10:25:05;;;;;;;1.67;1.40;;;4.90;98.20;;;;;;4910946;29;20472;-76
2021/11/23 10:27:33;;;;;;;1.60;1.30;;;4.90;98.20;;;;;;4903518;29;20871;-75
2021/11/23 10:30:01;;;;;;;1.67;1.30;;;4.90;98.20;;;;;;4912734;29;20473;-76
2021/11/23 10:32:28;;;;;;;1.67;1.40;;;5.00;98.20;;;;;;4900582;29;20508;-76
2021/11/23 10:34:55;;;;;;;1.60;1.40;;;5.00;98.20;;;;;;4903329;29;20473;-77
2021/11/23 10:37:29;;;;;;;1.63;1.40;;;5.10;98.20;;;;;;4896347;29;20500;-74
2021/11/23 10:40:10;;;;;;;4.33;4.03;;;5.10;98.20;;;;;;4906527;29;20470;-76
2021/11/23 10:42:37;;;;;;;1.60;1.40;;;5.10;98.20;;;;;;4910105;29;20491;-76
2021/11/23 10:45:09;;;;;;;1.70;1.40;;;5.00;98.20;;;;;;4912634;29;20632;-74
2021/11/23 10:47:37;;;;;;;1.60;1.30;;;5.00;98.20;;;;;;4892663;29;20876;-74
2021/11/23 10:50:06;;;;;;;1.60;1.30;;;4.90;98.20;;;;;;4901875;29;20473;-73
2021/11/23 10:52:36;;;;;;;1.60;1.30;;;4.90;98.20;;;;;;4902551;29;20584;-74
2021/11/23 10:55:08;;;;;;;1.70;1.47;;;4.90;98.20;;;;;;4911572;29;20528;-74
2021/11/23 10:57:40;;;;;;;1.70;1.40;;;4.80;98.20;;;;;;4912038;29;20495;-76
2021/11/23 11:00:09;;;;;;;1.63;1.40;;;4.80;98.20;;;;;;4909866;29;20464;-75
2021/11/23 11:02:38;;;;;;;1.60;1.30;;;4.90;98.20;;;;;;4897401;29;20534;-75
2021/11/23 11:05:07;;;;;;;1.70;1.50;;;4.90;98.20;;;;;;4905667;29;20545;-75
2021/11/23 11:07:34;;;;;;;1.67;1.40;;;4.90;98.20;;;;;;4910790;29;20879;-75
2021/11/23 11:10:04;;;;;;;1.60;1.30;;;4.90;98.20;;;;;;4908452;29;20524;-75
2021/11/23 11:12:32;;;;;;;1.63;1.40;;;5.00;98.20;;;;;;4911766;29;20585;-73
2021/11/23 11:15:02;;;;;;;1.67;1.40;;;5.00;98.20;;;;;;4911746;29;20954;-72
2021/11/23 11:17:29;;;;;;;1.63;1.40;;;5.00;98.20;;;;;;4909261;29;20503;-72
2021/11/23 11:19:59;;;;;;;1.60;1.30;;;5.00;98.20;;;;;;4913405;29;20475;-73
2021/11/23 11:22:27;;;;;;;1.67;1.40;;;5.00;98.20;;;;;;4911195;29;20487;-75
2021/11/23 11:25:05;;;;;;;1.60;1.30;;;5.00;98.20;;;;;;4906095;29;21040;-74
2021/11/23 11:27:46;;;;;;;2.10;1.90;;;5.00;98.20;;;;;;4906119;29;20582;-73
2021/11/23 11:30:23;;;;;;;1.60;1.40;;;5.00;98.20;;;;;;4899091;29;20464;-74
2021/11/23 11:32:51;;;;;;;2.03;1.83;;;5.00;98.20;;;;;;4896233;29;20605;-75
2021/11/23 11:35:26;;;;;;;1.60;1.30;;;5.00;98.20;;;;;;4908404;29;20579;-74
2021/11/23 11:37:55;;;;;;;1.70;1.50;;;5.00;98.20;;;;;;4910386;29;20498;-76
2021/11/23 11:40:26;;;;;;;1.70;1.47;;;5.10;98.20;;;;;;4901299;29;20921;-76
2021/11/23 11:43:05;;;;;;;1.67;1.40;;;5.10;98.20;;;;;;4894594;29;20508;-74
2021/11/23 11:45:43;;;;;;;1.70;1.40;;;5.10;98.20;;;;;;4903288;29;20564;-75
2021/11/23 11:48:43;;;;;;;1.63;1.40;;;5.20;98.20;;;;;;4910090;29;20491;-76
2021/11/23 11:51:17;;;;;;;1.70;1.40;;;5.30;98.20;;;;;;4896407;29;20488;-74
2021/11/23 11:53:46;;;;;;;1.60;1.40;;;5.30;98.20;;;;;;4904966;29;20864;-75
2021/11/23 11:56:14;;;;;;;1.63;1.30;;;5.40;98.20;;;;;;4897279;29;20679;-74
2021/11/23 11:58:55;;;;;;;1.63;1.33;;;5.40;98.20;;;;;;4902814;29;21050;-74
2021/11/23 12:01:34;;;;;;;1.60;1.30;;;5.40;98.20;;;;;;4899670;29;20492;-74
2021/11/23 12:04:09;;;;;;;1.60;1.30;;;5.40;98.20;;;;;;4905822;29;20484;-75
2021/11/23 12:07:09;;;;;;;1.63;1.30;;;5.50;98.20;;;;;;4905588;29;20483;-75
2021/11/23 12:09:39;;;;;;;1.63;1.40;;;5.40;98.20;;;;;;4909739;29;20556;-74
2021/11/23 12:12:50;;;;;;;1.60;1.30;;;5.40;98.20;;;;;;4903720;29;20555;-74
2021/11/23 12:15:35;;;;;;;1.60;1.30;;;5.40;98.20;;;;;;4847692;29;20474;-75
2021/11/23 12:18:14;;;;;;;1.60;1.40;;;5.50;98.20;;;;;;4887208;29;20497;-75
2021/11/23 12:20:50;;;;;;;1.70;1.40;;;5.50;98.20;;;;;;4904086;29;20469;-75
2021/11/23 12:23:19;;;;;;;1.60;1.30;;;5.60;98.20;;;;;;4893261;29;20492;-76
2021/11/23 12:25:54;;;;;;;1.70;1.40;;;5.60;98.20;;;;;;4903870;29;20483;-75
2021/11/23 12:28:21;;;;;;;4.43;3.63;;;5.60;98.20;;;;;;4893934;29;20492;-75
2021/11/23 12:30:51;;;;;;;1.63;1.40;;;5.70;98.20;;;;;;4893711;29;20991;-76
2021/11/23 12:33:18;;;;;;;1.67;1.50;;;5.70;98.20;;;;;;4918244;29;20469;-73
2021/11/23 12:35:45;;;;;;;1.60;1.20;;;5.70;98.20;;;;;;4903194;29;20470;-76
2021/11/23 12:38:23;;;;;;;1.60;1.30;;;5.80;98.20;;;;;;4903356;29;20501;-76
2021/11/23 12:40:50;;;;;;;1.60;1.30;;;5.80;98.20;;;;;;4892041;29;20836;-74
2021/11/23 12:43:18;;;;;;;1.60;1.30;;;5.80;98.20;;;;;;4904681;29;20553;-75
2021/11/23 12:45:47;;;;;;;1.60;1.30;;;5.80;98.20;;;;;;4908263;29;20469;-76
2021/11/23 12:48:27;;;;;;;1.70;1.40;;;5.80;98.20;;;;;;4886518;29;20580;-76
2021/11/23 12:50:55;;;;;;;1.60;1.30;;;5.80;98.20;;;;;;4886692;29;20472;-75
2021/11/23 12:53:23;;;;;;;1.60;1.40;;;5.80;98.20;;;;;;4915405;29;20496;-76
2021/11/23 12:55:52;;;;;;;1.60;1.30;;;5.70;98.20;;;;;;4893674;29;20461;-75
2021/11/23 12:58:19;;;;;;;1.63;1.30;;;5.70;98.20;;;;;;4904195;29;20813;-75
2021/11/23 13:00:46;;;;;;;1.60;1.30;;;5.80;98.20;;;;;;4903235;29;20480;-76
2021/11/23 13:03:15;;;;;;;1.67;1.40;;;5.90;98.20;;;;;;4888137;29;20839;-75
2021/11/23 13:05:43;;;;;;;1.60;1.30;;;6.00;98.20;;;;;;4906268;29;20491;-74